Time;durP1;ratioP1;P1;durP2;ratioP2;P2;SDS_P1;SDS_P2;PMS_P1;PMS_P2;Temp;Humidity;BMP_temperature;BMP_pressure;BME280_temperature;BME280_humidity;BME280_pressure;Samples;Min_cycle;Max_cycle;Signal;HPM_P1;HPM_P2
2023/04/16 00:01:15;;;;;;;2.03;1.73;;;12.10;78.70;12.00;96134.00;;;;5013932;28;20221;-81
2023/04/16 00:03:43;;;;;;;1.60;1.50;;;12.10;78.80;12.00;96144.00;;;;5017469;28;20313;-81
2023/04/16 00:06:11;;;;;;;1.83;1.73;;;12.00;78.80;11.90;96132.00;;;;5013631;28;20200;-81
2023/04/16 00:08:39;;;;;;;1.80;1.70;;;12.00;78.60;11.90;96129.00;;;;5011025;28;20259;-81
2023/04/16 00:11:08;;;;;;;1.80;1.70;;;12.00;78.70;11.90;96132.00;;;;5000426;28;20204;-80
2023/04/16 00:13:37;;;;;;;1.70;1.57;;;12.00;78.60;11.90;96137.00;;;;5029912;28;20593;-81
2023/04/16 00:16:04;;;;;;;1.90;1.80;;;12.00;78.60;11.80;96125.00;;;;5027634;28;20328;-81
2023/04/16 00:18:31;;;;;;;4.10;1.90;;;11.90;79.30;11.80;96137.00;;;;5018568;28;20206;-81
2023/04/16 00:20:59;;;;;;;1.80;1.70;;;11.90;79.40;11.80;96143.00;;;;5001525;28;20222;-81
2023/04/16 00:23:26;;;;;;;2.10;2.00;;;11.90;78.90;11.70;96149.00;;;;5027620;28;20656;-81
2023/04/16 00:25:56;;;;;;;1.67;1.57;;;11.90;79.00;11.70;96147.00;;;;5015620;28;20198;-81
2023/04/16 00:28:23;;;;;;;1.70;1.60;;;11.80;79.00;11.70;96149.00;;;;5029444;28;20265;-81
2023/04/16 00:30:52;;;;;;;2.10;2.00;;;11.80;79.00;11.70;96145.00;;;;5018607;28;20205;-81
2023/04/16 00:33:19;;;;;;;1.93;1.83;;;11.80;79.00;11.60;96130.00;;;;5019904;28;20308;-81
2023/04/16 00:35:47;;;;;;;2.00;1.90;;;11.80;79.10;11.60;96136.00;;;;5023299;28;20229;-81
2023/04/16 00:38:15;;;;;;;1.77;1.67;;;11.70;79.10;11.60;96138.00;;;;5032074;28;20201;-81
2023/04/16 00:40:42;;;;;;;1.70;1.60;;;11.70;79.10;11.60;96130.00;;;;5016942;28;20226;-81
2023/04/16 00:43:09;;;;;;;1.67;1.57;;;11.80;79.20;11.60;96135.00;;;;5032120;28;20550;-81
2023/04/16 00:45:37;;;;;;;1.53;1.43;;;11.70;79.10;11.60;96139.00;;;;5024108;28;20288;-82
2023/04/16 00:48:06;;;;;;;1.53;1.43;;;11.70;79.10;11.60;96138.00;;;;5025451;28;20284;-81
2023/04/16 00:50:34;;;;;;;1.60;1.50;;;11.70;79.00;11.50;96131.00;;;;4997708;28;20202;-81
2023/04/16 00:53:02;;;;;;;3.00;1.63;;;11.70;79.00;11.50;96135.00;;;;5011410;28;20217;-81
2023/04/16 00:55:31;;;;;;;1.87;1.30;;;11.60;79.00;11.50;96145.00;;;;5032778;28;20200;-81
2023/04/16 00:57:58;;;;;;;1.30;1.30;;;11.60;78.90;11.40;96145.00;;;;5020230;28;20689;-81
2023/04/16 01:00:25;;;;;;;1.10;1.10;;;11.60;78.80;11.40;96139.00;;;;5008940;28;20313;-81
2023/04/16 01:02:53;;;;;;;1.43;1.33;;;11.60;78.70;11.40;96141.00;;;;5032538;28;20217;-81
2023/04/16 01:05:22;;;;;;;1.37;1.27;;;11.60;78.70;11.40;96142.00;;;;5034680;28;20287;-81
2023/04/16 01:07:50;;;;;;;1.73;1.20;;;11.60;78.80;11.40;96145.00;;;;5034603;28;20197;-82
2023/04/16 01:10:17;;;;;;;1.27;1.17;;;11.60;78.90;11.40;96145.00;;;;5028583;28;20297;-81
2023/04/16 01:12:45;;;;;;;1.20;1.20;;;11.50;78.90;11.40;96140.00;;;;5022707;28;20220;-82
2023/04/16 01:15:12;;;;;;;1.20;1.20;;;11.50;79.00;11.40;96150.00;;;;5023154;28;20288;-82
2023/04/16 01:17:39;;;;;;;1.20;1.20;;;11.50;79.00;11.40;96146.00;;;;5030977;28;20284;-81
2023/04/16 01:20:07;;;;;;;1.30;1.20;;;11.50;79.00;11.40;96141.00;;;;5024094;28;20222;-81
2023/04/16 01:22:36;;;;;;;1.80;1.70;;;11.50;78.90;11.40;96144.00;;;;5031793;28;20221;-81
2023/04/16 01:25:03;;;;;;;2.30;1.30;;;11.50;78.80;11.40;96150.00;;;;4999349;28;20213;-81
2023/04/16 01:27:31;;;;;;;2.27;1.60;;;11.50;78.80;11.40;96160.00;;;;5009955;28;20244;-81
2023/04/16 01:29:58;;;;;;;1.17;1.17;;;11.50;78.90;11.40;96152.00;;;;5016318;28;20198;-81
2023/04/16 01:32:25;;;;;;;1.37;1.27;;;11.50;78.90;11.40;96150.00;;;;5022420;28;20251;-81
2023/04/16 01:34:53;;;;;;;2.47;1.33;;;11.40;79.00;11.40;96159.00;;;;5030862;28;20284;-82
2023/04/16 01:37:20;;;;;;;2.03;1.50;;;11.50;79.10;11.40;96154.00;;;;5021545;28;20764;-82
2023/04/16 01:39:48;;;;;;;1.50;1.40;;;11.40;79.00;11.40;96157.00;;;;5018448;28;20209;-82
2023/04/16 01:42:15;;;;;;;1.53;1.43;;;11.50;79.10;11.40;96162.00;;;;5029128;28;20579;-81
2023/04/16 01:44:43;;;;;;;1.50;1.40;;;11.50;79.00;11.40;96150.00;;;;5015710;28;20701;-81
2023/04/16 01:47:10;;;;;;;1.73;1.50;;;11.40;79.50;11.40;96154.00;;;;5033697;28;20941;-81
2023/04/16 01:49:38;;;;;;;1.90;1.40;;;11.40;78.80;11.40;96156.00;;;;5008119;28;20644;-80
2023/04/16 01:52:07;;;;;;;1.70;1.50;;;11.40;78.90;11.40;96159.00;;;;5002925;28;20290;-81
2023/04/16 01:54:34;;;;;;;1.80;1.63;;;11.40;78.80;11.40;96156.00;;;;5030028;28;20210;-80
2023/04/16 01:57:03;;;;;;;1.50;1.40;;;11.40;78.90;11.40;96162.00;;;;5033136;28;20280;-80
2023/04/16 01:59:30;;;;;;;1.97;1.30;;;11.40;78.70;11.40;96154.00;;;;5027846;28;20277;-80
2023/04/16 02:01:58;;;;;;;1.47;1.37;;;11.40;78.70;11.30;96152.00;;;;5025666;28;20319;-80
2023/04/16 02:04:25;;;;;;;1.90;1.47;;;11.40;78.70;11.30;96154.00;;;;5027661;28;20235;-81
2023/04/16 02:06:52;;;;;;;1.17;1.17;;;11.40;78.80;11.30;96159.00;;;;5018280;28;20288;-81
2023/04/16 02:09:19;;;;;;;1.50;1.40;;;11.50;79.00;11.40;96158.00;;;;5020357;28;20644;-81
2023/04/16 02:11:47;;;;;;;1.50;1.40;;;11.40;78.90;11.40;96161.00;;;;4998904;28;20202;-81
2023/04/16 02:14:15;;;;;;;1.70;1.60;;;11.40;79.00;11.40;96158.00;;;;5019258;28;20623;-81
2023/04/16 02:16:42;;;;;;;2.03;1.80;;;11.40;78.80;11.40;96164.00;;;;5014950;28;20198;-81
2023/04/16 02:19:10;;;;;;;1.80;1.60;;;11.40;78.80;11.40;96158.00;;;;5011910;28;20225;-81
2023/04/16 02:21:37;;;;;;;1.83;1.73;;;11.40;78.80;11.40;96162.00;;;;5021624;28;20222;-80
2023/04/16 02:24:05;;;;;;;1.90;1.80;;;11.50;78.90;11.40;96169.00;;;;5014605;28;20245;-81
2023/04/16 02:26:32;;;;;;;1.90;1.80;;;11.50;78.80;11.40;96168.00;;;;5010865;28;20240;-81
2023/04/16 02:28:59;;;;;;;2.17;1.97;;;11.50;78.80;11.40;96172.00;;;;5024997;28;20197;-81
2023/04/16 02:31:29;;;;;;;1.90;1.80;;;11.50;78.90;11.40;96170.00;;;;5027799;28;20240;-81
2023/04/16 02:33:56;;;;;;;2.00;1.90;;;11.50;78.90;11.40;96173.00;;;;4999209;28;20223;-82
2023/04/16 02:36:23;;;;;;;2.10;1.90;;;11.50;78.80;11.40;96168.00;;;;5018640;28;20668;-81
2023/04/16 02:38:51;;;;;;;2.03;1.93;;;11.50;78.80;11.40;96172.00;;;;5017036;28;20197;-81
2023/04/16 02:41:18;;;;;;;1.93;1.83;;;11.50;78.80;11.40;96182.00;;;;5021678;28;20317;-81
2023/04/16 02:43:46;;;;;;;2.00;1.90;;;11.50;78.80;11.50;96179.00;;;;5024305;28;20218;-82
2023/04/16 02:46:13;;;;;;;2.23;2.07;;;11.50;78.80;11.50;96186.00;;;;5016576;28;20206;-81
2023/04/16 02:48:41;;;;;;;2.10;2.00;;;11.50;78.80;11.50;96186.00;;;;5012159;28;20195;-81
2023/04/16 02:51:09;;;;;;;2.67;2.30;;;11.50;78.90;11.50;96182.00;;;;5028264;28;20209;-81
2023/04/16 02:53:36;;;;;;;2.10;2.00;;;11.50;79.10;11.50;96193.00;;;;5025728;28;20255;-81
2023/04/16 02:56:03;;;;;;;2.13;2.03;;;11.50;79.10;11.50;96185.00;;;;5014475;28;20297;-81
2023/04/16 02:58:30;;;;;;;2.50;2.30;;;11.50;78.90;11.50;96183.00;;;;5022092;28;20574;-81
2023/04/16 03:00:57;;;;;;;2.10;2.00;;;11.50;78.80;11.50;96194.00;;;;5019156;28;21443;-81
2023/04/16 03:03:25;;;;;;;2.97;2.77;;;11.50;78.90;11.50;96193.00;;;;5018172;28;20316;-81
2023/04/16 03:05:53;;;;;;;2.30;2.20;;;11.50;78.90;11.50;96184.00;;;;5014811;28;20193;-81
2023/04/16 03:08:20;;;;;;;3.00;2.80;;;11.50;78.90;11.50;96183.00;;;;5014104;28;20201;-81
2023/04/16 03:10:48;;;;;;;2.90;2.33;;;11.50;79.00;11.50;96186.00;;;;5022915;28;20229;-81
2023/04/16 03:13:15;;;;;;;2.27;2.17;;;11.50;79.00;11.50;96182.00;;;;5022756;28;20221;-81
2023/04/16 03:15:48;;;;;;;3.47;2.23;;;11.50;79.00;11.50;96185.00;;;;5018325;28;20251;-81
2023/04/16 03:18:15;;;;;;;2.70;2.50;;;11.50;79.10;11.50;96188.00;;;;5007820;28;20678;-81
2023/04/16 03:20:42;;;;;;;2.50;2.40;;;11.50;79.10;11.50;96190.00;;;;5025027;28;20231;-81
2023/04/16 03:23:11;;;;;;;2.60;2.40;;;11.50;79.00;11.50;96192.00;;;;5024161;28;20296;-81
2023/04/16 03:25:39;;;;;;;2.60;2.50;;;11.60;79.00;11.40;96190.00;;;;5031273;28;20264;-81
2023/04/16 03:28:06;;;;;;;3.10;2.90;;;11.50;79.00;11.40;96196.00;;;;5024509;28;20197;-81
2023/04/16 03:30:33;;;;;;;2.80;2.60;;;11.50;79.00;11.40;96193.00;;;;5017490;28;20202;-81
2023/04/16 03:33:00;;;;;;;2.90;2.70;;;11.50;79.10;11.40;96196.00;;;;5018534;28;20588;-80
2023/04/16 03:35:28;;;;;;;2.70;2.50;;;11.50;79.10;11.30;96199.00;;;;5024886;28;20288;-80
2023/04/16 03:37:55;;;;;;;2.83;2.63;;;11.50;79.20;11.30;96197.00;;;;5032471;28;20571;-80
2023/04/16 03:40:24;;;;;;;3.47;3.17;;;11.50;79.30;11.30;96203.00;;;;5020384;28;20204;-80
2023/04/16 03:42:51;;;;;;;2.90;2.70;;;11.40;79.40;11.30;96196.00;;;;5035239;28;20226;-80
2023/04/16 03:45:18;;;;;;;2.97;2.77;;;11.40;79.50;11.30;96205.00;;;;5034197;28;20201;-80
2023/04/16 03:47:51;;;;;;;2.83;2.63;;;11.40;79.60;11.30;96203.00;;;;5029907;28;20225;-81
2023/04/16 03:50:18;;;;;;;2.67;2.47;;;11.40;79.70;11.30;96204.00;;;;5014112;28;20285;-80
2023/04/16 03:52:48;;;;;;;3.00;2.80;;;11.40;79.80;11.30;96198.00;;;;5031719;28;20225;-80
2023/04/16 03:55:15;;;;;;;3.03;2.83;;;11.40;80.00;11.30;96197.00;;;;5026513;28;20201;-80
2023/04/16 03:57:44;;;;;;;3.10;2.90;;;11.40;79.90;11.40;96202.00;;;;5031282;28;20281;-80
2023/04/16 04:00:13;;;;;;;3.30;3.00;;;11.40;80.00;11.40;96213.00;;;;5004059;28;20244;-80
2023/04/16 04:02:40;;;;;;;3.10;2.90;;;11.40;80.00;11.30;96207.00;;;;5029618;28;20232;-80
2023/04/16 04:05:08;;;;;;;3.40;3.20;;;11.40;80.00;11.40;96221.00;;;;5013522;28;20198;-81
2023/04/16 04:07:35;;;;;;;3.87;3.57;;;11.40;80.00;11.40;96219.00;;;;5026859;28;20305;-80
2023/04/16 04:10:03;;;;;;;11.40;10.20;;;11.40;80.20;11.40;96219.00;;;;5006443;28;20213;-80
2023/04/16 04:12:31;;;;;;;5.43;4.93;;;11.40;80.40;11.30;96220.00;;;;5012206;28;20312;-80
2023/04/16 04:15:00;;;;;;;24.53;21.00;;;11.40;80.30;11.30;96218.00;;;;5029057;28;20237;-80
2023/04/16 04:17:28;;;;;;;9.73;8.73;;;11.40;80.30;11.30;96217.00;;;;4991287;28;20193;-80
2023/04/16 04:19:55;;;;;;;5.10;4.70;;;11.40;80.30;11.30;96221.00;;;;5038433;28;20264;-80
2023/04/16 04:22:22;;;;;;;4.30;4.00;;;11.40;80.20;11.30;96211.00;;;;4992476;28;20768;-80
2023/04/16 04:24:50;;;;;;;3.80;3.50;;;11.40;80.30;11.30;96222.00;;;;5016416;28;20205;-80
2023/04/16 04:27:17;;;;;;;3.10;2.90;;;11.40;80.30;11.30;96221.00;;;;5029976;28;20305;-80
2023/04/16 04:29:44;;;;;;;3.40;3.20;;;11.40;80.40;11.30;96218.00;;;;5036234;28;20207;-80
2023/04/16 04:32:13;;;;;;;2.97;2.77;;;11.30;80.30;11.30;96219.00;;;;5011235;28;20283;-80
2023/04/16 04:34:40;;;;;;;3.40;3.20;;;11.30;80.30;11.30;96231.00;;;;5031652;28;20704;-80
2023/04/16 04:37:07;;;;;;;5.30;3.17;;;11.30;80.30;11.20;96232.00;;;;5025708;28;20198;-81
2023/04/16 04:39:35;;;;;;;2.77;2.57;;;11.30;80.30;11.20;96232.00;;;;5005972;28;20193;-80
2023/04/16 04:42:03;;;;;;;2.83;2.63;;;11.30;80.40;11.20;96230.00;;;;5030491;28;20222;-80
2023/04/16 04:44:30;;;;;;;3.40;3.20;;;11.30;80.50;11.20;96228.00;;;;5021982;28;20209;-80
2023/04/16 04:46:57;;;;;;;3.33;3.03;;;11.30;80.50;11.20;96235.00;;;;5010607;28;20201;-80
2023/04/16 04:49:25;;;;;;;3.40;3.20;;;11.30;80.60;11.20;96237.00;;;;5024801;28;20292;-80
2023/04/16 04:51:53;;;;;;;3.23;3.03;;;11.30;80.80;11.20;96238.00;;;;5019997;28;20241;-79
2023/04/16 04:54:20;;;;;;;2.70;2.50;;;11.30;80.90;11.20;96244.00;;;;4998590;28;20593;-80
2023/04/16 04:56:47;;;;;;;2.57;2.47;;;11.30;80.80;11.20;96244.00;;;;5024994;28;20288;-80
2023/04/16 04:59:14;;;;;;;2.87;2.67;;;11.30;80.80;11.10;96240.00;;;;5023341;28;20256;-80
2023/04/16 05:01:42;;;;;;;2.67;2.47;;;11.30;80.70;11.10;96248.00;;;;5027558;28;20308;-80
2023/04/16 05:04:09;;;;;;;3.13;2.90;;;11.20;80.60;11.10;96254.00;;;;5015439;28;20255;-80
2023/04/16 05:06:37;;;;;;;2.90;2.70;;;11.20;80.60;11.10;96250.00;;;;5015033;28;20288;-80
2023/04/16 05:09:05;;;;;;;2.77;2.60;;;11.20;80.60;11.10;96258.00;;;;5017810;28;20261;-81
2023/04/16 05:11:34;;;;;;;2.97;2.77;;;11.30;80.70;11.10;96253.00;;;;4980569;28;20206;-80
2023/04/16 05:14:01;;;;;;;3.07;2.87;;;11.20;80.60;11.10;96265.00;;;;5024876;28;20277;-80
2023/04/16 05:16:28;;;;;;;2.90;2.70;;;11.20;80.70;11.20;96268.00;;;;5025923;28;20615;-80
2023/04/16 05:18:56;;;;;;;3.03;2.83;;;11.20;80.80;11.20;96266.00;;;;5010847;28;20262;-81
2023/04/16 05:21:25;;;;;;;2.70;2.50;;;11.20;80.90;11.20;96276.00;;;;5028907;28;20701;-80
2023/04/16 05:23:54;;;;;;;2.80;2.60;;;11.20;81.00;11.20;96281.00;;;;5029029;28;20217;-81
2023/04/16 05:26:21;;;;;;;3.23;2.90;;;11.30;81.20;11.30;96278.00;;;;5009181;28;20596;-80
2023/04/16 05:28:49;;;;;;;3.10;2.90;;;11.30;81.20;11.30;96279.00;;;;5021189;28;20200;-81
2023/04/16 05:31:16;;;;;;;2.87;2.70;;;11.30;81.20;11.30;96278.00;;;;5024166;28;20202;-81
2023/04/16 05:33:43;;;;;;;2.53;2.33;;;11.30;81.20;11.30;96285.00;;;;5024616;28;20308;-80
2023/04/16 05:36:10;;;;;;;2.80;2.60;;;11.30;81.20;11.30;96286.00;;;;5020274;28;20604;-80
2023/04/16 05:38:38;;;;;;;2.97;2.77;;;11.30;81.10;11.30;96285.00;;;;5014178;28;20289;-80
2023/04/16 05:41:07;;;;;;;3.00;2.80;;;11.40;81.30;11.40;96285.00;;;;5023912;28;20281;-80
2023/04/16 05:43:34;;;;;;;2.90;2.70;;;11.40;81.40;11.40;96287.00;;;;5016626;28;20301;-80
2023/04/16 05:46:01;;;;;;;2.97;2.77;;;11.40;81.40;11.40;96283.00;;;;5023947;28;20201;-81
2023/04/16 05:48:28;;;;;;;2.73;2.53;;;11.40;81.40;11.40;96291.00;;;;5010411;28;20202;-81
2023/04/16 05:50:55;;;;;;;2.67;2.53;;;11.40;81.40;11.40;96293.00;;;;5016481;28;20202;-80
2023/04/16 05:53:22;;;;;;;2.63;2.43;;;11.40;81.30;11.50;96296.00;;;;5018484;28;20653;-80
2023/04/16 05:55:50;;;;;;;2.80;2.60;;;11.50;81.30;11.50;96294.00;;;;5014700;28;20285;-79
2023/04/16 05:58:18;;;;;;;3.00;2.80;;;11.50;81.20;11.50;96293.00;;;;5027878;28;20233;-80
2023/04/16 06:00:46;;;;;;;2.73;2.53;;;11.50;81.10;11.50;96301.00;;;;5016135;28;20225;-80
2023/04/16 06:03:13;;;;;;;2.60;2.40;;;11.50;81.10;11.60;96301.00;;;;5000421;28;20628;-81
2023/04/16 06:05:40;;;;;;;2.70;2.50;;;11.50;81.40;11.60;96304.00;;;;5013663;28;20198;-80
2023/04/16 06:08:07;;;;;;;2.60;2.50;;;11.60;81.50;11.60;96304.00;;;;5022403;28;20193;-81
2023/04/16 06:10:34;;;;;;;2.80;2.60;;;11.60;81.60;11.70;96305.00;;;;5022830;28;20280;-83
2023/04/16 06:13:02;;;;;;;2.50;2.40;;;11.60;81.50;11.70;96314.00;;;;5019123;28;20297;-81
2023/04/16 06:15:31;;;;;;;3.00;2.70;;;11.70;81.40;11.70;96314.00;;;;5034731;28;20201;-81
2023/04/16 06:17:58;;;;;;;2.73;2.53;;;11.70;81.20;11.80;96314.00;;;;5021109;28;20273;-82
2023/04/16 06:20:25;;;;;;;6.80;2.80;;;11.70;81.20;11.90;96314.00;;;;5027337;28;20288;-82
2023/04/16 06:22:53;;;;;;;2.50;2.40;;;11.70;81.20;11.90;96316.00;;;;5017453;28;20854;-82
2023/04/16 06:25:20;;;;;;;2.70;2.60;;;11.80;81.30;12.00;96319.00;;;;5022149;28;20647;-83
2023/04/16 06:27:47;;;;;;;3.20;3.00;;;11.80;81.40;12.00;96321.00;;;;5006930;28;20241;-83
2023/04/16 06:30:16;;;;;;;3.20;3.00;;;11.80;81.50;12.00;96325.00;;;;5004933;28;20198;-82
2023/04/16 06:32:45;;;;;;;6.47;2.97;;;11.90;81.40;12.10;96320.00;;;;5025697;28;20228;-84
2023/04/16 06:35:12;;;;;;;5.93;2.93;;;11.90;81.30;12.10;96329.00;;;;5018524;28;20625;-85
2023/04/16 06:37:40;;;;;;;3.00;2.80;;;11.90;81.40;12.20;96330.00;;;;5026341;28;20271;-83
2023/04/16 06:40:08;;;;;;;3.77;3.47;;;12.00;81.50;12.20;96342.00;;;;4994458;28;20730;-83
2023/04/16 06:42:36;;;;;;;2.77;2.57;;;12.00;81.40;12.20;96340.00;;;;5020433;28;20240;-83
2023/04/16 06:45:03;;;;;;;2.53;2.43;;;12.00;81.10;12.30;96343.00;;;;5034118;28;20201;-83
2023/04/16 06:47:30;;;;;;;2.87;2.67;;;12.10;81.10;12.30;96343.00;;;;5022239;28;20768;-82
2023/04/16 06:49:59;;;;;;;3.20;3.00;;;12.10;81.00;12.30;96340.00;;;;5023423;28;20280;-82
2023/04/16 06:52:26;;;;;;;2.80;2.60;;;12.10;80.90;12.30;96348.00;;;;5022690;28;20221;-83
2023/04/16 06:54:54;;;;;;;2.47;2.37;;;12.20;81.00;12.40;96342.00;;;;5013387;28;20276;-82
2023/04/16 06:57:21;;;;;;;3.20;2.30;;;12.20;80.90;12.40;96345.00;;;;4996663;28;20291;-83
2023/04/16 06:59:48;;;;;;;2.70;2.50;;;12.20;80.90;12.40;96346.00;;;;5013803;28;20284;-81
2023/04/16 07:02:15;;;;;;;2.47;2.37;;;12.20;81.00;12.50;96347.00;;;;5022506;28;20217;-81
2023/04/16 07:04:43;;;;;;;2.70;2.50;;;12.30;81.00;12.50;96349.00;;;;5025281;28;20206;-81
2023/04/16 07:07:11;;;;;;;2.53;2.37;;;12.30;80.60;12.50;96346.00;;;;5017674;28;20281;-82
2023/04/16 07:09:39;;;;;;;2.43;2.33;;;12.30;80.60;12.60;96353.00;;;;5006214;28;20262;-83
2023/04/16 07:12:07;;;;;;;3.00;2.70;;;12.30;80.50;12.60;96354.00;;;;5035639;28;20202;-81
2023/04/16 07:14:34;;;;;;;3.13;2.93;;;12.40;80.60;12.60;96345.00;;;;5020305;28;20234;-81
2023/04/16 07:17:02;;;;;;;3.00;2.50;;;12.40;80.80;12.60;96352.00;;;;5029474;28;20663;-82
2023/04/16 07:19:31;;;;;;;2.53;2.33;;;12.40;80.80;12.60;96349.00;;;;5021765;28;20209;-82
2023/04/16 07:21:58;;;;;;;2.87;2.57;;;12.40;80.60;12.60;96349.00;;;;5021445;28;20221;-82
2023/04/16 07:24:27;;;;;;;3.20;3.00;;;12.50;80.40;12.60;96349.00;;;;5013097;28;20313;-82
2023/04/16 07:26:54;;;;;;;2.80;2.60;;;12.50;80.30;12.60;96339.00;;;;5012802;28;20212;-83
2023/04/16 07:29:22;;;;;;;2.47;2.33;;;12.50;80.50;12.60;96353.00;;;;4993071;28;20209;-82
2023/04/16 07:31:49;;;;;;;2.63;2.43;;;12.50;80.40;12.60;96348.00;;;;4996641;28;20190;-80
2023/04/16 07:34:17;;;;;;;3.60;2.87;;;12.50;80.20;12.60;96355.00;;;;5011813;28;20228;-82
2023/04/16 07:36:44;;;;;;;2.70;2.50;;;12.50;80.60;12.70;96359.00;;;;5018416;28;20264;-83
2023/04/16 07:39:12;;;;;;;2.37;2.27;;;12.50;80.90;12.70;96362.00;;;;4995080;28;20202;-84
2023/04/16 07:41:41;;;;;;;2.90;2.70;;;12.50;81.10;12.70;96351.00;;;;5026668;28;20281;-83
2023/04/16 07:44:08;;;;;;;2.40;2.30;;;12.50;81.20;12.70;96361.00;;;;5004859;28;20772;-83
2023/04/16 07:46:36;;;;;;;2.37;2.27;;;12.50;81.00;12.80;96355.00;;;;5033821;28;20264;-82
2023/04/16 07:49:03;;;;;;;2.60;2.40;;;12.50;81.00;12.80;96358.00;;;;5027710;28;20594;-82
2023/04/16 07:51:31;;;;;;;2.13;2.03;;;12.50;81.20;12.80;96358.00;;;;5016415;28;20208;-83
2023/04/16 07:53:58;;;;;;;2.13;2.03;;;12.60;81.20;12.90;96356.00;;;;5019381;28;20252;-81
2023/04/16 07:56:25;;;;;;;1.93;1.83;;;12.60;81.40;12.90;96364.00;;;;5002796;28;20212;-81
2023/04/16 07:58:54;;;;;;;1.97;1.87;;;12.70;81.30;13.00;96367.00;;;;5026683;28;20197;-83
2023/04/16 08:01:22;;;;;;;2.37;2.20;;;12.70;80.90;13.00;96371.00;;;;5010641;28;20253;-82
2023/04/16 08:03:49;;;;;;;2.00;1.90;;;12.70;80.80;13.00;96361.00;;;;5020590;28;20252;-82
2023/04/16 08:06:16;;;;;;;2.03;1.93;;;12.70;80.60;13.00;96373.00;;;;4989553;28;20232;-83
2023/04/16 08:08:44;;;;;;;2.10;1.80;;;12.70;80.70;13.10;96382.00;;;;4988270;28;20655;-82
2023/04/16 08:11:11;;;;;;;7.80;2.37;;;12.80;81.10;13.10;96383.00;;;;5023216;28;20346;-83
2023/04/16 08:13:38;;;;;;;1.90;1.80;;;12.80;81.10;13.10;96381.00;;;;5004426;28;20232;-83
2023/04/16 08:16:08;;;;;;;1.60;1.50;;;12.80;81.10;13.20;96376.00;;;;5033651;28;20670;-82
2023/04/16 08:18:41;;;;;;;3.60;1.50;;;12.90;81.10;13.30;96389.00;;;;5035565;28;20221;-82
2023/04/16 08:21:09;;;;;;;1.87;1.60;;;12.90;81.20;13.40;96386.00;;;;5024712;28;20282;-83
2023/04/16 08:23:36;;;;;;;1.47;1.37;;;13.00;81.40;13.40;96387.00;;;;4996901;28;20738;-83
2023/04/16 08:26:03;;;;;;;1.30;1.30;;;13.00;81.20;13.50;96392.00;;;;5019924;28;20273;-83
2023/04/16 08:28:31;;;;;;;1.20;1.10;;;13.10;81.00;13.50;96393.00;;;;4996689;28;20233;-82
2023/04/16 08:30:58;;;;;;;1.10;1.10;;;13.10;80.90;13.60;96390.00;;;;5016821;28;20285;-83
2023/04/16 08:33:27;;;;;;;1.47;1.10;;;13.20;80.80;13.70;96392.00;;;;5031364;28;20248;-83
2023/04/16 08:35:54;;;;;;;1.00;1.00;;;13.20;80.80;13.70;96404.00;;;;5011272;28;20288;-82
2023/04/16 08:38:21;;;;;;;0.87;0.87;;;13.30;80.70;13.80;96393.00;;;;5002445;28;20244;-82
2023/04/16 08:40:49;;;;;;;1.00;1.00;;;13.40;80.70;13.90;96400.00;;;;5034992;28;20284;-82
2023/04/16 08:43:19;;;;;;;1.07;1.07;;;13.40;80.80;14.00;96398.00;;;;5028372;28;20578;-81
2023/04/16 08:45:49;;;;;;;1.30;1.20;;;13.40;80.40;14.00;96404.00;;;;5000280;28;20198;-81
2023/04/16 08:48:20;;;;;;;1.00;0.87;;;13.50;80.30;14.10;96409.00;;;;5017943;28;20208;-81
2023/04/16 08:50:52;;;;;;;1.60;1.07;;;13.60;80.50;14.30;96406.00;;;;5017615;28;20202;-82
2023/04/16 08:53:37;;;;;;;0.80;0.80;;;13.70;80.40;14.40;96415.00;;;;5029411;28;20232;-81
2023/04/16 08:56:09;;;;;;;1.63;0.90;;;13.80;80.20;14.50;96416.00;;;;5026569;28;20460;-81
2023/04/16 08:58:38;;;;;;;0.60;0.60;;;13.90;80.10;14.60;96413.00;;;;5028885;28;20713;-82
2023/04/16 09:01:10;;;;;;;1.60;0.60;;;14.00;80.30;14.70;96425.00;;;;5015823;28;20686;-81
2023/04/16 09:03:39;;;;;;;0.53;0.53;;;14.10;80.00;14.80;96424.00;;;;5016818;28;20756;-81
2023/04/16 09:06:09;;;;;;;6.40;1.17;;;14.20;79.60;14.80;96425.00;;;;5025689;28;20596;-82
2023/04/16 09:08:37;;;;;;;0.60;0.60;;;14.20;79.40;14.90;96427.00;;;;5019081;28;20233;-82
2023/04/16 09:11:05;;;;;;;0.70;0.70;;;14.30;79.20;14.90;96429.00;;;;5019507;28;20280;-82
2023/04/16 09:13:33;;;;;;;0.60;0.60;;;14.40;79.20;15.00;96433.00;;;;5018796;28;20574;-81
2023/04/16 09:16:01;;;;;;;0.70;0.70;;;14.40;79.50;15.10;96434.00;;;;5011422;28;20201;-82
2023/04/16 09:18:28;;;;;;;2.30;1.07;;;14.50;79.60;15.20;96435.00;;;;5020044;28;20260;-82
2023/04/16 09:20:56;;;;;;;0.70;0.60;;;14.60;79.20;15.20;96441.00;;;;5037245;28;20556;-82
2023/04/16 09:23:25;;;;;;;1.73;0.70;;;14.70;78.80;15.20;96449.00;;;;5023686;28;20694;-82
2023/04/16 09:25:52;;;;;;;0.93;0.50;;;14.70;78.70;15.30;96449.00;;;;5022937;28;20735;-82
2023/04/16 09:28:42;;;;;;;0.40;0.40;;;14.80;78.60;15.30;96446.00;;;;5026159;28;20289;-82
2023/04/16 09:31:14;;;;;;;2.10;0.30;;;14.80;76.60;15.40;96443.00;;;;5017448;28;20258;-82
2023/04/16 09:33:42;;;;;;;0.30;0.30;;;14.90;77.80;15.40;96445.00;;;;5018514;28;20740;-82
2023/04/16 09:36:10;;;;;;;2.23;0.40;;;14.90;77.60;15.50;96451.00;;;;5018551;28;20194;-82
2023/04/16 09:38:50;;;;;;;1.67;0.30;;;15.00;77.60;15.60;96452.00;;;;5011990;28;20233;-82
2023/04/16 09:41:19;;;;;;;0.30;0.30;;;15.10;77.20;15.70;96453.00;;;;5009650;28;20198;-82
2023/04/16 09:43:58;;;;;;;0.40;0.40;;;15.10;76.90;15.70;96448.00;;;;5015673;28;20225;-81
2023/04/16 09:46:31;;;;;;;1.23;0.40;;;15.20;75.70;15.70;96452.00;;;;4998451;28;20654;-82
2023/04/16 09:48:58;;;;;;;0.30;0.30;;;15.20;76.20;15.80;96460.00;;;;5015785;28;20205;-82
2023/04/16 09:51:27;;;;;;;0.70;0.27;;;15.30;76.20;15.80;96458.00;;;;5022293;28;20292;-82
2023/04/16 09:53:57;;;;;;;0.20;0.20;;;15.30;75.90;15.80;96455.00;;;;5028473;28;20214;-83
2023/04/16 09:56:26;;;;;;;0.87;0.47;;;15.30;75.40;15.80;96457.00;;;;5014505;28;20262;-81
2023/04/16 09:58:58;;;;;;;0.30;0.30;;;15.40;75.80;15.90;96456.00;;;;5001199;28;20272;-82
2023/04/16 10:01:25;;;;;;;0.10;0.10;;;15.40;75.10;15.90;96452.00;;;;5033577;28;20205;-82
2023/04/16 10:03:55;;;;;;;0.20;0.20;;;15.40;75.50;16.00;96452.00;;;;5020946;28;20313;-82
2023/04/16 10:06:26;;;;;;;0.10;0.10;;;15.50;75.40;16.00;96459.00;;;;5019929;28;20214;-82
2023/04/16 10:08:56;;;;;;;0.20;0.20;;;15.50;75.40;16.10;96460.00;;;;5004421;28;20206;-82
2023/04/16 10:11:24;;;;;;;0.00;0.00;;;15.60;74.50;16.10;96461.00;;;;5025280;28;20231;-81
2023/04/16 10:13:52;;;;;;;0.10;0.10;;;15.60;73.90;16.10;96459.00;;;;5010453;28;20221;-82
2023/04/16 10:16:19;;;;;;;0.10;0.10;;;15.60;73.90;16.20;96455.00;;;;5034763;28;20194;-81
2023/04/16 10:18:47;;;;;;;0.07;0.07;;;15.60;74.30;16.20;96460.00;;;;5001374;28;20593;-81
2023/04/16 10:21:16;;;;;;;0.20;0.10;;;15.70;74.30;16.30;96458.00;;;;5020608;28;20653;-81
2023/04/16 10:23:45;;;;;;;0.60;0.10;;;15.80;74.20;16.40;96464.00;;;;5028899;28;20232;-81
2023/04/16 10:26:14;;;;;;;0.20;0.20;;;15.80;74.30;16.40;96457.00;;;;5020711;28;20202;-82
2023/04/16 10:28:44;;;;;;;0.10;0.10;;;15.90;74.30;16.50;96460.00;;;;5020833;28;20197;-81
2023/04/16 10:31:13;;;;;;;0.10;0.10;;;15.90;73.70;16.50;96458.00;;;;5003431;28;21008;-82
2023/04/16 10:33:42;;;;;;;0.20;0.20;;;16.00;73.10;16.60;96464.00;;;;5018133;28;20244;-81
2023/04/16 10:36:12;;;;;;;0.20;0.20;;;16.10;72.90;16.70;96466.00;;;;5002066;28;20257;-82
2023/04/16 10:38:41;;;;;;;3.60;0.30;;;16.10;72.70;16.80;96468.00;;;;5019361;28;20659;-81
2023/04/16 10:41:09;;;;;;;0.30;0.30;;;16.20;73.30;16.90;96473.00;;;;5015895;28;20190;-82
2023/04/16 10:43:45;;;;;;;0.80;0.77;;;16.30;73.20;17.00;96465.00;;;;5012684;28;20222;-83
2023/04/16 10:46:20;;;;;;;0.87;0.83;;;16.40;72.20;17.20;96469.00;;;;5005764;28;20221;-82
2023/04/16 10:48:48;;;;;;;0.30;0.30;;;16.50;72.40;17.30;96472.00;;;;5013069;28;20202;-82
2023/04/16 10:51:30;;;;;;;0.30;0.30;;;16.50;72.20;17.30;96469.00;;;;5012953;28;20198;-82
2023/04/16 10:54:19;;;;;;;0.23;0.20;;;16.60;69.70;17.30;96465.00;;;;5014692;28;20304;-81
2023/04/16 10:56:47;;;;;;;1.40;1.10;;;16.70;70.50;17.30;96472.00;;;;5018129;28;20341;-82
2023/04/16 10:59:20;;;;;;;1.27;1.17;;;16.70;71.20;17.30;96468.00;;;;5027886;28;20281;-80